createdAt,value
2022-11-07T00:00:26.432Z,31.70
2022-11-07T00:03:28.937Z,34.28
2022-11-07T00:06:31.701Z,37.07
2022-11-07T00:09:34.322Z,33.35
2022-11-07T00:12:36.621Z,34.33
2022-11-07T00:15:39.124Z,34.88
2022-11-07T00:18:41.471Z,33.50
2022-11-07T00:21:44.770Z,31.40
2022-11-07T00:24:46.941Z,32.65
2022-11-07T00:27:49.589Z,33.05
2022-11-07T00:30:51.771Z,38.05
2022-11-07T00:33:54.334Z,30.42
2022-11-07T00:36:56.542Z,32.87
2022-11-07T00:39:59.027Z,28.62
2022-11-07T00:43:01.302Z,24.17
2022-11-07T00:46:05.438Z,25.95
2022-11-07T00:49:07.644Z,25.12
2022-11-07T00:52:10.127Z,24.00
2022-11-07T00:55:12.358Z,27.52
2022-11-07T00:58:17.031Z,26.83
2022-11-07T01:01:21.793Z,33.88
2022-11-07T01:04:42.758Z,31.48
2022-11-07T01:07:44.949Z,33.70
2022-11-07T01:10:47.460Z,29.52
2022-11-07T01:13:49.724Z,26.98
2022-11-07T01:16:52.467Z,32.38
2022-11-07T01:19:54.726Z,29.23
2022-11-07T01:22:57.268Z,29.33
2022-11-07T01:26:05.234Z,27.20
2022-11-07T01:29:08.506Z,25.50
2022-11-07T01:32:10.762Z,26.20
2022-11-07T01:35:13.739Z,25.95
2022-11-07T01:38:16.388Z,24.47
2022-11-07T01:41:21.994Z,26.90
2022-11-07T01:44:24.163Z,26.17
2022-11-07T01:47:34.832Z,25.12
2022-11-07T01:50:37.122Z,25.65
2022-11-07T01:53:41.296Z,25.47
2022-11-07T01:56:45.213Z,22.90
2022-11-07T01:59:49.361Z,27.20
2022-11-07T02:02:59.399Z,25.23
2022-11-07T02:06:07.765Z,25.88
2022-11-07T02:09:10.037Z,26.23
2022-11-07T02:12:14.429Z,29.37
2022-11-07T02:15:16.977Z,25.17
2022-11-07T02:18:21.106Z,25.83
2022-11-07T02:21:47.178Z,23.02
2022-11-07T02:24:53.835Z,26.47
2022-11-07T02:28:00.278Z,27.00
2022-11-07T02:31:02.751Z,27.13
2022-11-07T02:34:04.996Z,28.62
2022-11-07T02:37:17.901Z,28.30
2022-11-07T02:40:20.989Z,26.17
2022-11-07T02:43:27.174Z,27.20
2022-11-07T02:46:32.403Z,22.95
2022-11-07T02:49:35.005Z,27.75
2022-11-07T02:52:37.264Z,26.02
2022-11-07T02:55:39.864Z,27.20
2022-11-07T02:58:42.544Z,28.58
2022-11-07T03:01:45.224Z,25.37
2022-11-07T03:04:49.223Z,29.87
2022-11-07T03:07:52.317Z,27.30
2022-11-07T03:10:54.810Z,28.87
2022-11-07T03:13:57.320Z,27.33
2022-11-07T03:16:59.554Z,28.40
2022-11-07T03:20:02.293Z,27.80
2022-11-07T03:23:04.556Z,25.67
2022-11-07T03:26:07.185Z,31.90
2022-11-07T03:29:10.058Z,31.27
2022-11-07T03:32:12.688Z,31.70
2022-11-07T03:35:14.962Z,31.60
2022-11-07T03:38:17.503Z,31.02
2022-11-07T03:41:19.747Z,33.33
2022-11-07T03:44:22.276Z,30.73
2022-11-07T03:47:24.488Z,33.25
2022-11-07T03:50:27.079Z,32.95
2022-11-07T03:53:29.280Z,29.33
2022-11-07T03:56:31.781Z,35.63
2022-11-07T03:59:33.994Z,33.17
2022-11-07T04:02:37.029Z,38.05
2022-11-07T04:05:39.664Z,30.70
2022-11-07T04:08:41.861Z,34.90
2022-11-07T04:12:02.715Z,29.07
2022-11-07T04:15:23.985Z,32.42
2022-11-07T04:18:26.558Z,32.75
2022-11-07T04:21:28.777Z,36.45
2022-11-07T04:24:31.972Z,35.88
2022-11-07T04:27:43.135Z,34.67
2022-11-07T04:30:45.757Z,31.37
2022-11-07T04:33:48.153Z,34.88
2022-11-07T04:36:50.655Z,31.55
2022-11-07T04:39:52.878Z,37.05
2022-11-07T04:42:55.666Z,35.80
2022-11-07T04:45:57.864Z,37.28
2022-11-07T04:49:00.377Z,33.60
2022-11-07T04:52:02.689Z,34.25
2022-11-07T04:55:06.691Z,35.58
2022-11-07T04:58:09.596Z,35.13
2022-11-07T05:01:12.183Z,38.08
2022-11-07T05:04:14.382Z,33.80
2022-11-07T05:07:17.006Z,40.28
2022-11-07T05:10:24.642Z,36.28
2022-11-07T05:13:27.132Z,35.57
2022-11-07T05:16:32.745Z,38.25
2022-11-07T05:19:35.275Z,39.63
2022-11-07T05:22:56.547Z,36.10
2022-11-07T05:25:59.182Z,41.17
2022-11-07T05:29:01.722Z,36.40
2022-11-07T05:32:04.382Z,35.33
2022-11-07T05:35:06.848Z,34.90
2022-11-07T05:38:09.582Z,33.55
2022-11-07T05:41:12.631Z,31.73
2022-11-07T05:44:15.166Z,38.17
2022-11-07T05:47:17.433Z,35.20
2022-11-07T05:50:19.870Z,32.35
2022-11-07T05:53:22.882Z,35.58
2022-11-07T05:56:25.393Z,32.03
2022-11-07T05:59:27.724Z,31.67
2022-11-07T06:02:30.439Z,37.10
2022-11-07T06:05:33.403Z,38.05
2022-11-07T06:08:35.613Z,36.50
2022-11-07T06:11:38.167Z,41.08
2022-11-07T06:14:40.375Z,35.07
2022-11-07T06:17:42.916Z,37.22
2022-11-07T06:20:45.463Z,35.97
2022-11-07T06:23:48.231Z,39.83
2022-11-07T06:26:50.446Z,36.88
2022-11-07T06:29:52.956Z,37.10
2022-11-07T06:32:55.281Z,38.28
2022-11-07T06:36:09.735Z,39.50
2022-11-07T06:39:12.121Z,37.35
2022-11-07T06:42:14.638Z,40.60
2022-11-07T06:45:17.025Z,37.53
2022-11-07T06:48:19.533Z,37.45
2022-11-07T06:51:21.931Z,39.17
2022-11-07T06:54:24.465Z,40.10
2022-11-07T06:57:26.808Z,41.37
2022-11-07T07:00:31.311Z,41.53
2022-11-07T07:03:33.603Z,42.38
2022-11-07T07:06:36.170Z,41.95
2022-11-07T07:09:38.420Z,39.00
2022-11-07T07:12:41.345Z,44.42
2022-11-07T07:15:51.806Z,35.70
2022-11-07T07:18:54.347Z,43.58
2022-11-07T07:21:56.644Z,41.72
2022-11-07T07:24:59.216Z,39.40
2022-11-07T07:28:01.489Z,44.08
2022-11-07T07:31:20.798Z,40.73
2022-11-07T07:34:23.072Z,43.03
2022-11-07T07:37:25.621Z,43.33
2022-11-07T07:40:28.336Z,38.53
2022-11-07T07:43:31.298Z,42.33
2022-11-07T07:46:33.555Z,42.97
2022-11-07T07:49:36.153Z,43.28
2022-11-07T07:52:40.272Z,43.55
2022-11-07T07:55:43.296Z,44.58
2022-11-07T07:58:46.770Z,48.30
2022-11-07T08:01:55.253Z,47.50
2022-11-07T08:04:59.245Z,45.12
2022-11-07T08:08:01.631Z,41.37
2022-11-07T08:11:06.785Z,39.47
2022-11-07T08:14:09.028Z,48.03
2022-11-07T08:17:11.543Z,49.40
2022-11-07T08:20:16.732Z,34.17
2022-11-07T08:23:20.068Z,37.63
2022-11-07T08:26:22.562Z,29.12
2022-11-07T08:29:25.085Z,29.50
2022-11-07T08:32:28.533Z,27.53
2022-11-07T08:35:31.415Z,27.58
2022-11-07T08:38:35.463Z,26.25
2022-11-07T08:41:38.014Z,24.73
2022-11-07T08:44:40.306Z,24.75
2022-11-07T08:47:42.849Z,22.57
2022-11-07T08:50:45.409Z,22.65
2022-11-07T08:53:47.947Z,26.73
2022-11-07T08:56:50.159Z,24.27
2022-11-07T08:59:52.714Z,21.83
2022-11-07T09:03:30.823Z,19.48
2022-11-07T09:06:18.212Z,19.80
2022-11-07T09:09:20.506Z,20.92
2022-11-07T09:12:23.024Z,22.13
2022-11-07T09:15:25.314Z,24.40
2022-11-07T09:18:31.438Z,22.10
2022-11-07T09:21:33.710Z,20.17
2022-11-07T09:24:36.386Z,22.52
2022-11-07T09:27:38.772Z,21.67
2022-11-07T09:30:41.596Z,23.73
2022-11-07T09:33:43.814Z,21.52
2022-11-07T09:36:46.518Z,19.75
2022-11-07T09:39:49.302Z,17.00
2022-11-07T09:43:07.009Z,21.00
2022-11-07T09:46:18.088Z,20.10
2022-11-07T09:49:28.872Z,16.42
2022-11-07T09:52:31.700Z,15.93
2022-11-07T09:55:38.247Z,20.90
2022-11-07T09:58:47.274Z,15.55
2022-11-07T10:01:49.949Z,19.83
2022-11-07T10:04:57.815Z,22.50
2022-11-07T10:08:15.248Z,13.02
2022-11-07T10:11:33.853Z,16.87
2022-11-07T10:14:36.150Z,12.73
2022-11-07T10:18:18.824Z,16.93
2022-11-07T10:21:40.364Z,13.57
2022-11-07T10:24:54.910Z,14.20
2022-11-07T10:28:18.512Z,15.85
2022-11-07T10:31:21.154Z,14.65
2022-11-07T10:34:34.674Z,12.63
2022-11-07T10:37:37.224Z,18.37
2022-11-07T10:40:42.247Z,12.73
2022-11-07T10:43:49.721Z,14.50
2022-11-07T10:46:54.634Z,12.65
2022-11-07T10:50:03.589Z,16.83
2022-11-07T10:53:09.692Z,18.42
2022-11-07T10:56:19.437Z,15.13
2022-11-07T10:59:29.004Z,18.33
2022-11-07T11:02:48.268Z,16.10
2022-11-07T11:05:50.645Z,18.10
2022-11-07T11:08:53.553Z,15.98
2022-11-07T11:11:56.254Z,16.85
2022-11-07T11:15:13.768Z,17.30
2022-11-07T11:18:18.890Z,15.52
2022-11-07T11:21:22.642Z,17.00
2022-11-07T11:24:39.577Z,14.43
2022-11-07T11:27:42.620Z,16.05
2022-11-07T11:30:50.931Z,15.00
2022-11-07T11:34:06.954Z,12.88
2022-11-07T11:37:14.981Z,14.70
2022-11-07T11:40:22.155Z,15.07
2022-11-07T11:43:27.969Z,15.13
2022-11-07T11:46:52.844Z,16.52
2022-11-07T11:50:01.084Z,14.25
2022-11-07T11:53:03.881Z,14.20
2022-11-07T11:56:11.803Z,13.23
2022-11-07T11:59:54.534Z,13.20
2022-11-07T12:03:34.359Z,13.98
2022-11-07T12:06:40.087Z,12.25
2022-11-07T12:09:56.429Z,16.93
2022-11-07T12:13:14.863Z,17.52
2022-11-07T12:16:53.041Z,12.27
2022-11-07T12:20:07.559Z,12.23
2022-11-07T12:23:30.076Z,12.77
2022-11-07T12:27:08.384Z,10.70
2022-11-07T12:30:32.603Z,9.82
2022-11-07T12:33:48.591Z,9.07
2022-11-07T12:37:15.037Z,8.63
2022-11-07T12:40:46.924Z,8.88
2022-11-07T12:44:01.120Z,9.53
2022-11-07T12:47:14.425Z,8.68
2022-11-07T12:50:44.259Z,8.07
2022-11-07T12:54:18.400Z,11.45
2022-11-07T12:57:22.591Z,7.37
2022-11-07T13:00:30.039Z,6.97
2022-11-07T13:04:05.441Z,7.80
2022-11-07T13:07:35.636Z,8.57
2022-11-07T13:10:57.048Z,7.47
2022-11-07T13:14:23.793Z,9.65
2022-11-07T13:17:39.604Z,7.70
2022-11-07T13:20:42.258Z,10.15
2022-11-07T13:23:45.692Z,7.62
2022-11-07T13:26:48.553Z,7.87
2022-11-07T13:29:51.401Z,8.68
2022-11-07T13:32:53.970Z,7.87
2022-11-07T13:36:25.617Z,9.65
2022-11-07T13:39:29.908Z,8.60
2022-11-07T13:42:34.140Z,7.40
2022-11-07T13:45:50.576Z,7.07
2022-11-07T13:48:59.073Z,7.10
2022-11-07T13:52:08.935Z,9.82
2022-11-07T13:55:18.790Z,9.02
2022-11-07T13:58:22.440Z,7.30
2022-11-07T14:01:24.810Z,6.72
2022-11-07T14:04:29.435Z,7.07
2022-11-07T14:07:38.031Z,4.82
2022-11-07T14:10:46.480Z,5.78
2022-11-07T14:13:52.584Z,5.45
2022-11-07T14:17:00.487Z,5.22
2022-11-07T14:20:21.311Z,6.17
2022-11-07T14:23:26.623Z,8.60
2022-11-07T14:26:38.836Z,7.30
2022-11-07T14:29:59.910Z,5.65
2022-11-07T14:33:04.369Z,7.12
2022-11-07T14:36:07.222Z,12.17
2022-11-07T14:39:15.712Z,7.57
2022-11-07T14:42:22.311Z,7.57
2022-11-07T14:45:55.061Z,6.32
2022-11-07T14:48:51.319Z,5.90
2022-11-07T14:51:54.667Z,7.37
2022-11-07T14:55:06.217Z,5.95
2022-11-07T14:58:11.283Z,4.93
2022-11-07T15:01:23.592Z,5.65
2022-11-07T15:04:46.742Z,6.82
2022-11-07T15:07:50.240Z,6.30
2022-11-07T15:11:00.633Z,5.90
2022-11-07T15:14:06.906Z,7.95
2022-11-07T15:17:25.379Z,5.68
2022-11-07T15:20:30.916Z,7.95
2022-11-07T15:23:35.182Z,6.03
2022-11-07T15:26:37.722Z,7.03
2022-11-07T15:29:51.071Z,8.55
2022-11-07T15:32:53.663Z,5.85
2022-11-07T15:35:59.567Z,6.45
2022-11-07T15:39:02.185Z,6.03
2022-11-07T15:42:04.598Z,8.43
2022-11-07T15:45:07.660Z,6.82
2022-11-07T15:48:16.638Z,12.90
2022-11-07T15:51:19.494Z,8.05
2022-11-07T15:54:21.805Z,7.50
2022-11-07T15:57:24.291Z,8.15
2022-11-07T16:00:27.051Z,7.47
2022-11-07T16:03:29.594Z,9.60
2022-11-07T16:06:32.165Z,9.10
2022-11-07T16:09:34.791Z,10.57
2022-11-07T16:12:37.065Z,10.73
2022-11-07T16:15:41.804Z,12.82
2022-11-07T16:18:45.851Z,10.45
2022-11-07T16:21:48.492Z,12.13
2022-11-07T16:24:50.802Z,12.30
2022-11-07T16:27:55.717Z,15.57
2022-11-07T16:30:59.106Z,9.25
2022-11-07T16:34:01.878Z,13.13
2022-11-07T16:37:04.209Z,14.38
2022-11-07T16:40:12.270Z,12.00
2022-11-07T16:43:14.677Z,9.48
2022-11-07T16:46:21.224Z,10.75
2022-11-07T16:49:32.566Z,14.77
2022-11-07T16:52:35.087Z,12.70
2022-11-07T16:55:37.869Z,14.50
2022-11-07T16:58:40.411Z,9.75
2022-11-07T17:01:42.944Z,11.85
2022-11-07T17:04:45.566Z,11.07
2022-11-07T17:07:49.787Z,9.77
2022-11-07T17:10:52.684Z,9.43
2022-11-07T17:13:55.032Z,9.02
2022-11-07T17:17:00.590Z,9.95
2022-11-07T17:20:02.971Z,13.95
2022-11-07T17:23:05.482Z,11.05
2022-11-07T17:26:10.029Z,10.00
2022-11-07T17:29:13.746Z,10.43
2022-11-07T17:32:16.080Z,14.95
2022-11-07T17:35:31.724Z,20.67
2022-11-07T17:38:34.862Z,11.23
2022-11-07T17:41:38.720Z,22.33
2022-11-07T17:44:41.514Z,31.12
2022-11-07T17:47:44.034Z,27.80
2022-11-07T17:50:46.355Z,16.83
2022-11-07T17:53:49.107Z,12.43
2022-11-07T17:56:51.381Z,12.23
2022-11-07T17:59:53.919Z,13.85
2022-11-07T18:02:56.444Z,14.70
2022-11-07T18:05:59.083Z,12.63
2022-11-07T18:09:02.133Z,17.08
2022-11-07T18:12:04.988Z,13.63
2022-11-07T18:15:08.866Z,13.95
2022-11-07T18:18:11.583Z,18.30
2022-11-07T18:21:14.043Z,21.27
2022-11-07T18:24:16.933Z,23.67
2022-11-07T18:27:19.960Z,19.20
2022-11-07T18:30:22.518Z,22.00
2022-11-07T18:33:24.793Z,17.70
2022-11-07T18:36:28.047Z,18.80
2022-11-07T18:39:30.311Z,14.45
2022-11-07T18:42:32.851Z,15.37
2022-11-07T18:45:35.083Z,13.80
2022-11-07T18:48:38.446Z,15.18
2022-11-07T18:51:42.828Z,31.62
2022-11-07T18:54:47.018Z,17.73
2022-11-07T18:57:49.291Z,14.43
2022-11-07T19:00:51.900Z,15.18
2022-11-07T19:03:55.778Z,14.15
2022-11-07T19:06:58.413Z,17.40
2022-11-07T19:10:00.703Z,48.67
2022-11-07T19:13:07.941Z,17.17
2022-11-07T19:16:14.572Z,15.38
2022-11-07T19:19:17.278Z,16.60
2022-11-07T19:22:19.677Z,14.63
2022-11-07T19:25:22.432Z,18.27
2022-11-07T19:28:24.683Z,30.37
2022-11-07T19:31:32.052Z,21.65
2022-11-07T19:34:37.172Z,21.92
2022-11-07T19:37:40.119Z,24.25
2022-11-07T19:40:48.573Z,21.00
2022-11-07T19:43:51.655Z,20.37
2022-11-07T19:46:53.883Z,17.55
2022-11-07T19:49:56.798Z,17.87
2022-11-07T19:52:59.272Z,16.27
2022-11-07T19:56:06.988Z,16.42
2022-11-07T19:59:10.525Z,18.53
2022-11-07T20:05:38.798Z,18.42
2022-11-07T20:08:41.574Z,19.77
2022-11-07T20:11:44.129Z,19.30
2022-11-07T20:14:46.813Z,16.60
2022-11-07T20:17:49.426Z,17.85
2022-11-07T20:20:58.964Z,18.30
2022-11-07T20:24:01.597Z,16.77
2022-11-07T20:27:03.905Z,15.93
2022-11-07T20:30:07.247Z,15.03
2022-11-07T20:33:09.572Z,16.90
2022-11-07T20:36:14.042Z,15.50
2022-11-07T20:39:16.394Z,17.62
2022-11-07T20:42:18.975Z,13.60
2022-11-07T20:45:21.369Z,16.77
2022-11-07T20:48:23.962Z,21.15
2022-11-07T20:51:26.301Z,17.52
2022-11-07T20:54:29.869Z,16.90
2022-11-07T20:57:32.174Z,22.80
2022-11-07T21:00:35.367Z,20.93
2022-11-07T21:03:37.753Z,19.75
2022-11-07T21:06:40.277Z,17.95
2022-11-07T21:09:42.586Z,20.62
2022-11-07T21:12:45.199Z,22.13
2022-11-07T21:15:51.367Z,18.70
2022-11-07T21:18:55.441Z,18.77
2022-11-07T21:21:57.663Z,24.63
2022-11-07T21:25:06.020Z,22.77
2022-11-07T21:28:12.667Z,20.60
2022-11-07T21:31:23.665Z,17.20
2022-11-07T21:34:25.925Z,23.27
2022-11-07T21:37:28.523Z,27.23
2022-11-07T21:40:31.116Z,21.62
2022-11-07T21:43:33.841Z,25.08
2022-11-07T21:46:36.107Z,35.57
2022-11-07T21:49:39.571Z,22.00
2022-11-07T21:52:42.090Z,20.65
2022-11-07T21:55:44.814Z,22.83
2022-11-07T21:58:47.117Z,25.92
2022-11-07T22:01:50.090Z,27.67
2022-11-07T22:04:52.710Z,26.98
2022-11-07T22:07:54.965Z,27.40
2022-11-07T22:11:00.519Z,25.90
2022-11-07T22:14:03.440Z,29.83
2022-11-07T22:17:05.978Z,28.27
2022-11-07T22:20:08.796Z,31.08
2022-11-07T22:23:11.273Z,26.35
2022-11-07T22:26:19.255Z,30.62
2022-11-07T22:29:22.039Z,30.23
2022-11-07T22:32:24.301Z,29.13
2022-11-07T22:35:26.853Z,30.85
2022-11-07T22:38:32.253Z,32.65
2022-11-07T22:41:34.957Z,33.15
2022-11-07T22:44:37.247Z,33.38
2022-11-07T22:47:39.935Z,31.60
2022-11-07T22:50:44.317Z,33.47
2022-11-07T22:53:47.348Z,32.03
2022-11-07T22:56:49.621Z,32.70
2022-11-07T22:59:52.180Z,34.63
2022-11-07T23:02:54.667Z,28.33
2022-11-07T23:05:57.415Z,29.58
2022-11-07T23:09:00.732Z,29.95
2022-11-07T23:12:03.436Z,29.60
2022-11-07T23:15:06.430Z,29.70
2022-11-07T23:18:09.121Z,31.50
2022-11-07T23:21:11.495Z,34.05
2022-11-07T23:24:14.556Z,32.75
2022-11-07T23:27:20.348Z,29.87
2022-11-07T23:30:22.884Z,31.00
2022-11-07T23:33:25.191Z,33.57
2022-11-07T23:36:27.719Z,33.28
2022-11-07T23:39:30.018Z,33.38
2022-11-07T23:42:32.575Z,29.83
2022-11-07T23:45:53.753Z,31.10
2022-11-07T23:49:15.003Z,31.23
2022-11-07T23:52:18.239Z,33.35
2022-11-07T23:55:39.535Z,32.75
2022-11-07T23:59:00.368Z,33.72
